createdAt,value
2022-08-25T00:01:51.913Z,98818.63
2022-08-25T00:04:18.568Z,98803.41
2022-08-25T00:06:45.296Z,98809.81
2022-08-25T00:09:13.054Z,98808.75
2022-08-25T00:11:39.995Z,98809.56
2022-08-25T00:14:12.911Z,98814.63
2022-08-25T00:16:39.605Z,98810.59
2022-08-25T00:19:08.646Z,98814.09
2022-08-25T00:21:35.145Z,98811.44
2022-08-25T00:24:02.378Z,98807.94
2022-08-25T00:26:29.731Z,98809.28
2022-08-25T00:29:01.632Z,98817.59
2022-08-25T00:31:38.532Z,98815.94
2022-08-25T00:34:10.721Z,98817.03
2022-08-25T00:36:37.576Z,98818.91
2022-08-25T00:39:04.940Z,98813.28
2022-08-25T00:41:31.437Z,98813.84
2022-08-25T00:44:00.562Z,98821.84
2022-08-25T00:46:29.587Z,98815.94
2022-08-25T00:48:59.101Z,98814.91
2022-08-25T00:51:30.338Z,98821.31
2022-08-25T00:53:56.843Z,98815.72
2022-08-25T00:56:23.817Z,98819.19
2022-08-25T00:58:50.323Z,98819.19
2022-08-25T01:01:16.875Z,98818.09
2022-08-25T01:03:43.441Z,98813.56
2022-08-25T01:06:11.557Z,98813.84
2022-08-25T01:08:38.343Z,98810.59
2022-08-25T01:11:06.146Z,98809.81
2022-08-25T01:13:40.147Z,98812.22
2022-08-25T01:16:06.563Z,98817.56
2022-08-25T01:18:47.249Z,98812.22
2022-08-25T01:21:13.821Z,98813.28
2022-08-25T01:23:41.186Z,98820.50
2022-08-25T01:26:19.717Z,98812.75
2022-08-25T01:29:10.501Z,98815.44
2022-08-25T01:31:37.973Z,98815.94
2022-08-25T01:34:05.658Z,98812.19
2022-08-25T01:36:32.427Z,98806.03
2022-08-25T01:38:58.989Z,98809.00
2022-08-25T01:41:48.299Z,98812.47
2022-08-25T01:44:17.903Z,98805.81
2022-08-25T01:46:44.388Z,98799.91
2022-08-25T01:49:10.879Z,98796.69
2022-08-25T01:51:44.489Z,98800.44
2022-08-25T01:54:11.271Z,98796.94
2022-08-25T01:56:38.737Z,98796.69
2022-08-25T01:59:05.265Z,98802.84
2022-08-25T02:01:32.247Z,98794.81
2022-08-25T02:03:59.533Z,98786.81
2022-08-25T02:06:33.111Z,98785.19
2022-08-25T02:09:13.255Z,98791.34
2022-08-25T02:11:42.045Z,98789.19
2022-08-25T02:14:09.260Z,98795.63
2022-08-25T02:16:36.727Z,98798.31
2022-08-25T02:19:04.654Z,98798.31
2022-08-25T02:21:32.476Z,98797.50
2022-08-25T02:23:59.141Z,98791.34
2022-08-25T02:26:27.352Z,98789.47
2022-08-25T02:28:54.050Z,98795.63
2022-08-25T02:31:22.506Z,98792.41
2022-08-25T02:33:49.305Z,98785.44
2022-08-25T02:36:16.062Z,98781.16
2022-08-25T02:38:42.602Z,98781.16
2022-08-25T02:41:16.724Z,98785.44
2022-08-25T02:43:43.731Z,98784.66
2022-08-25T02:46:11.324Z,98789.19
2022-08-25T02:48:38.608Z,98785.41
2022-08-25T02:51:06.472Z,98779.03
2022-08-25T02:53:33.383Z,98788.09
2022-08-25T02:55:59.883Z,98782.25
2022-08-25T02:58:26.399Z,98783.03
2022-08-25T03:00:53.229Z,98787.59
2022-08-25T03:03:20.033Z,98788.66
2022-08-25T03:05:46.604Z,98782.72
2022-08-25T03:08:13.099Z,98786.78
2022-08-25T03:10:39.608Z,98784.38
2022-08-25T03:13:06.085Z,98778.78
2022-08-25T03:15:32.983Z,98779.03
2022-08-25T03:17:59.989Z,98786.00
2022-08-25T03:20:27.835Z,98788.41
2022-08-25T03:22:54.619Z,98779.84
2022-08-25T03:25:39.838Z,98782.72
2022-08-25T03:28:06.926Z,98783.28
2022-08-25T03:30:33.687Z,98781.66
2022-08-25T03:33:00.176Z,98787.56
2022-08-25T03:35:26.655Z,98782.72
2022-08-25T03:37:57.080Z,98789.69
2022-08-25T03:40:23.774Z,98782.22
2022-08-25T03:42:50.325Z,98779.53
2022-08-25T03:45:17.221Z,98781.94
2022-08-25T03:47:45.982Z,98783.81
2022-08-25T03:50:12.710Z,98784.88
2022-08-25T03:52:42.545Z,98780.63
2022-08-25T03:55:10.430Z,98772.31
2022-08-25T03:57:36.916Z,98768.84
2022-08-25T04:00:06.150Z,98776.88
2022-08-25T04:02:33.681Z,98777.09
2022-08-25T04:05:00.954Z,98769.09
2022-08-25T04:07:27.442Z,98768.03
2022-08-25T04:09:54.816Z,98770.72
2022-08-25T04:12:21.303Z,98772.59
2022-08-25T04:14:49.285Z,98770.97
2022-08-25T04:17:15.817Z,98767.25
2022-08-25T04:19:42.302Z,98754.91
2022-08-25T04:22:08.786Z,98758.66
2022-08-25T04:24:35.260Z,98758.66
2022-08-25T04:27:01.738Z,98761.06
2022-08-25T04:29:28.222Z,98745.81
2022-08-25T04:31:54.890Z,98744.22
2022-08-25T04:34:31.059Z,98742.34
2022-08-25T04:37:02.465Z,98751.16
2022-08-25T04:39:29.022Z,98755.47
2022-08-25T04:41:55.540Z,98766.69
2022-08-25T04:44:22.085Z,98761.63
2022-08-25T04:46:49.690Z,98758.19
2022-08-25T04:49:16.186Z,98755.78
2022-08-25T04:51:42.698Z,98753.09
2022-08-25T04:54:16.822Z,98764.34
2022-08-25T04:56:43.407Z,98758.47
2022-08-25T04:59:11.750Z,98757.38
2022-08-25T05:01:38.782Z,98764.59
2022-08-25T05:04:06.031Z,98762.72
2022-08-25T05:06:32.705Z,98758.44
2022-08-25T05:08:59.361Z,98767.81
2022-08-25T05:11:25.974Z,98752.28
2022-08-25T05:13:53.353Z,98752.84
2022-08-25T05:16:20.759Z,98759.00
2022-08-25T05:18:47.371Z,98749.59
2022-08-25T05:21:15.414Z,98752.84
2022-08-25T05:23:42.085Z,98756.84
2022-08-25T05:26:12.982Z,98752.28
2022-08-25T05:28:41.778Z,98757.63
2022-08-25T05:31:09.398Z,98751.19
2022-08-25T05:33:36.335Z,98750.16
2022-08-25T05:36:03.267Z,98747.19
2022-08-25T05:38:30.315Z,98750.38
2022-08-25T05:41:01.585Z,98744.53
2022-08-25T05:43:28.929Z,98742.63
2022-08-25T05:45:55.946Z,98743.69
2022-08-25T05:48:22.582Z,98750.66
2022-08-25T05:50:57.411Z,98748.53
2022-08-25T05:53:24.242Z,98746.38
2022-08-25T05:55:54.118Z,98748.53
2022-08-25T05:58:20.949Z,98742.09
2022-08-25T06:00:47.668Z,98746.38
2022-08-25T06:03:14.214Z,98744.25
2022-08-25T06:05:41.102Z,98753.06
2022-08-25T06:08:07.594Z,98755.47
2022-08-25T06:10:34.120Z,98744.25
2022-08-25T06:13:00.754Z,98751.72
2022-08-25T06:15:28.014Z,98754.63
2022-08-25T06:18:00.726Z,98751.69
2022-08-25T06:20:29.126Z,98753.03
2022-08-25T06:22:55.645Z,98748.81
2022-08-25T06:25:23.561Z,98750.69
2022-08-25T06:27:50.045Z,98748.56
2022-08-25T06:30:23.738Z,98745.59
2022-08-25T06:32:51.136Z,98742.13
2022-08-25T06:35:20.767Z,98749.09
2022-08-25T06:37:47.460Z,98744.28
2022-08-25T06:40:14.278Z,98731.72
2022-08-25T06:42:40.850Z,98738.94
2022-08-25T06:45:07.796Z,98735.72
2022-08-25T06:47:34.447Z,98732.78
2022-08-25T06:50:03.554Z,98729.03
2022-08-25T06:52:31.029Z,98730.38
2022-08-25T06:54:57.575Z,98729.81
2022-08-25T06:57:24.122Z,98731.41
2022-08-25T06:59:53.574Z,98736.50
2022-08-25T07:02:21.976Z,98724.47
2022-08-25T07:04:48.797Z,98725.00
2022-08-25T07:07:15.323Z,98723.94
2022-08-25T07:09:41.818Z,98730.34
2022-08-25T07:12:08.443Z,98729.56
2022-08-25T07:14:36.380Z,98731.44
2022-08-25T07:17:03.341Z,98729.81
2022-08-25T07:19:37.389Z,98730.09
2022-08-25T07:22:03.898Z,98737.31
2022-08-25T07:24:30.389Z,98735.16
2022-08-25T07:26:56.946Z,98743.72
2022-08-25T07:29:31.901Z,98739.19
2022-08-25T07:32:00.963Z,98732.72
2022-08-25T07:34:46.056Z,98744.78
2022-08-25T07:37:32.270Z,98752.28
2022-08-25T07:40:05.752Z,98754.69
2022-08-25T07:42:32.275Z,98746.13
2022-08-25T07:44:58.856Z,98743.16
2022-08-25T07:47:25.351Z,98742.63
2022-08-25T07:49:52.444Z,98744.25
2022-08-25T07:52:19.808Z,98742.38
2022-08-25T07:54:46.322Z,98745.56
2022-08-25T07:57:13.715Z,98748.00
2022-08-25T07:59:41.752Z,98738.91
2022-08-25T08:02:17.621Z,98751.19
2022-08-25T08:04:48.348Z,98744.78
2022-08-25T08:07:19.653Z,98748.19
2022-08-25T08:09:46.926Z,98748.75
2022-08-25T08:12:13.438Z,98753.13
2022-08-25T08:14:45.043Z,98746.81
2022-08-25T08:17:12.889Z,98748.69
2022-08-25T08:19:44.889Z,98755.97
2022-08-25T08:22:15.252Z,98747.88
2022-08-25T08:24:54.450Z,98741.81
2022-08-25T08:27:22.437Z,98747.97
2022-08-25T08:29:49.278Z,98747.66
2022-08-25T08:32:17.830Z,98742.50
2022-08-25T08:34:46.129Z,98734.19
2022-08-25T08:37:12.611Z,98737.94
2022-08-25T08:39:39.483Z,98726.44
2022-08-25T08:42:37.069Z,98735.50
2022-08-25T08:45:09.629Z,98736.03
2022-08-25T08:47:59.175Z,98744.66
2022-08-25T08:50:32.965Z,98738.72
2022-08-25T08:53:23.329Z,98731.47
2022-08-25T08:56:01.434Z,98733.59
2022-08-25T08:58:35.263Z,98725.81
2022-08-25T09:01:03.008Z,98719.72
2022-08-25T09:03:55.356Z,98718.03
2022-08-25T09:06:32.111Z,98722.06
2022-08-25T09:08:59.232Z,98719.97
2022-08-25T09:11:40.917Z,98716.16
2022-08-25T09:14:07.250Z,98715.91
2022-08-25T09:16:59.669Z,98710.34
2022-08-25T09:20:04.909Z,98713.84
2022-08-25T09:22:39.063Z,98716.72
2022-08-25T09:25:53.517Z,98720.97
2022-08-25T09:28:31.742Z,98721.44
2022-08-25T09:31:01.613Z,98714.81
2022-08-25T09:33:29.697Z,98706.25
2022-08-25T09:35:57.477Z,98708.66
2022-08-25T09:38:24.793Z,98702.50
2022-08-25T09:40:54.509Z,98697.72
2022-08-25T09:43:29.574Z,98704.66
2022-08-25T09:45:58.541Z,98706.81
2022-08-25T09:48:42.294Z,98689.66
2022-08-25T09:51:27.071Z,98687.25
2022-08-25T09:54:10.596Z,98683.75
2022-08-25T09:56:38.195Z,98683.75
2022-08-25T09:59:35.004Z,98682.44
2022-08-25T10:02:25.185Z,98680.53
2022-08-25T10:04:52.921Z,98669.53
2022-08-25T10:07:25.350Z,98656.72
2022-08-25T10:09:57.642Z,98665.81
2022-08-25T10:12:35.105Z,98664.72
2022-08-25T10:15:35.855Z,98651.63
2022-08-25T10:18:23.417Z,98649.47
2022-08-25T10:21:12.021Z,98650.53
2022-08-25T10:23:57.325Z,98637.13
2022-08-25T10:26:45.755Z,98628.31
2022-08-25T10:29:32.651Z,98636.88
2022-08-25T10:32:19.177Z,98636.34
2022-08-25T10:34:51.638Z,98618.38
2022-08-25T10:37:47.865Z,98615.19
2022-08-25T10:40:38.690Z,98616.19
2022-08-25T10:43:19.230Z,98608.44
2022-08-25T10:45:54.189Z,98600.63
2022-08-25T10:48:48.687Z,98602.75
2022-08-25T10:51:45.778Z,98590.91
2022-08-25T10:54:29.094Z,98602.97
2022-08-25T10:57:17.273Z,98595.66
2022-08-25T10:59:51.091Z,98587.13
2022-08-25T11:02:42.535Z,98580.44
2022-08-25T11:05:24.954Z,98582.50
2022-08-25T11:08:11.467Z,98572.81
2022-08-25T11:10:48.415Z,98570.16
2022-08-25T11:13:26.403Z,98564.50
2022-08-25T11:16:19.189Z,98561.81
2022-08-25T11:18:52.764Z,98567.97
2022-08-25T11:21:27.935Z,98566.88
2022-08-25T11:24:00.591Z,98570.91
2022-08-25T11:26:36.667Z,98560.97
2022-08-25T11:29:12.560Z,98560.16
2022-08-25T11:31:52.724Z,98548.06
2022-08-25T11:34:19.914Z,98555.06
2022-08-25T11:36:52.239Z,98557.72
2022-08-25T11:39:56.414Z,98554.19
2022-08-25T11:42:49.086Z,98550.66
2022-08-25T11:45:21.563Z,98549.81
2022-08-25T11:48:13.340Z,98554.34
2022-08-25T11:51:16.379Z,98553.81
2022-08-25T11:53:43.237Z,98536.13
2022-08-25T11:56:12.492Z,98543.91
2022-08-25T11:58:42.878Z,98547.63
2022-08-25T12:01:11.223Z,98538.50
2022-08-25T12:03:47.372Z,98528.06
2022-08-25T12:06:25.211Z,98525.09
2022-08-25T12:09:17.737Z,98520.31
2022-08-25T12:11:46.989Z,98518.09
2022-08-25T12:14:28.135Z,98518.38
2022-08-25T12:16:54.887Z,98519.44
2022-08-25T12:19:34.401Z,98509.75
2022-08-25T12:22:04.185Z,98519.16
2022-08-25T12:24:48.140Z,98503.88
2022-08-25T12:27:33.794Z,98502.28
2022-08-25T12:30:05.864Z,98501.19
2022-08-25T12:32:50.527Z,98501.75
2022-08-25T12:35:31.339Z,98502.03
2022-08-25T12:38:05.973Z,98500.09
2022-08-25T12:40:38.517Z,98507.66
2022-08-25T12:43:10.503Z,98501.81
2022-08-25T12:45:42.418Z,98506.31
2022-08-25T12:48:27.192Z,98507.13
2022-08-25T12:51:04.978Z,98495.59
2022-08-25T12:53:36.218Z,98492.13
2022-08-25T12:56:08.057Z,98493.22
2022-08-25T12:59:01.039Z,98499.38
2022-08-25T13:01:37.060Z,98507.13
2022-08-25T13:04:26.758Z,98496.38
2022-08-25T13:07:07.605Z,98499.88
2022-08-25T13:09:49.559Z,98492.91
2022-08-25T13:12:24.026Z,98495.34
2022-08-25T13:14:56.370Z,98493.75
2022-08-25T13:17:33.820Z,98494.84
2022-08-25T13:20:20.331Z,98482.97
2022-08-25T13:22:47.857Z,98474.66
2022-08-25T13:25:23.129Z,98470.09
2022-08-25T13:27:51.886Z,98470.66
2022-08-25T13:30:32.198Z,98472.25
2022-08-25T13:32:59.033Z,98481.09
2022-08-25T13:35:32.165Z,98467.19
2022-08-25T13:38:15.178Z,98468.53
2022-08-25T13:40:42.976Z,98469.69
2022-08-25T13:43:10.977Z,98464.56
2022-08-25T13:45:41.257Z,98460.28
2022-08-25T13:48:23.080Z,98457.59
2022-08-25T13:50:53.171Z,98454.91
2022-08-25T13:53:23.890Z,98455.97
2022-08-25T13:55:54.829Z,98458.09
2022-08-25T13:58:34.325Z,98451.72
2022-08-25T14:01:47.977Z,98452.50
2022-08-25T14:04:24.176Z,98447.44
2022-08-25T14:07:14.308Z,98449.31
2022-08-25T14:09:49.285Z,98445.25
2022-08-25T14:12:36.748Z,98447.94
2022-08-25T14:15:13.585Z,98436.47
2022-08-25T14:17:41.885Z,98434.81
2022-08-25T14:20:29.658Z,98431.34
2022-08-25T14:22:58.247Z,98431.34
2022-08-25T14:25:27.595Z,98425.13
2022-08-25T14:28:06.701Z,98428.59
2022-08-25T14:30:35.122Z,98421.94
2022-08-25T14:33:01.992Z,98420.06
2022-08-25T14:35:29.523Z,98417.66
2022-08-25T14:37:57.919Z,98414.16
2022-08-25T14:40:24.495Z,98412.00
2022-08-25T14:42:51.190Z,98407.94
2022-08-25T14:45:17.801Z,98407.44
2022-08-25T14:47:44.666Z,98407.44
2022-08-25T14:50:16.989Z,98402.34
2022-08-25T14:52:46.732Z,98396.19
2022-08-25T14:55:13.569Z,98394.03
2022-08-25T14:57:56.239Z,98388.94
2022-08-25T15:03:03.964Z,98393.91
2022-08-25T15:05:31.783Z,98381.25
2022-08-25T15:08:16.881Z,98389.22
2022-08-25T15:10:43.584Z,98395.31
2022-08-25T15:13:10.335Z,98386.31
2022-08-25T15:15:38.571Z,98388.44
2022-08-25T15:18:05.507Z,98393.22
2022-08-25T15:20:32.794Z,98396.34
2022-08-25T15:23:00.247Z,98382.91
2022-08-25T15:25:27.233Z,98390.13
2022-08-25T15:27:54.131Z,98388.25
2022-08-25T15:30:20.796Z,98381.91
2022-08-25T15:32:59.888Z,98385.28
2022-08-25T15:35:27.668Z,98374.09
2022-08-25T15:37:55.592Z,98373.53
2022-08-25T15:40:22.430Z,98374.56
2022-08-25T15:42:49.112Z,98372.28
2022-08-25T15:45:15.707Z,98370.41
2022-08-25T15:47:44.393Z,98362.00
2022-08-25T15:50:14.631Z,98356.44
2022-08-25T15:52:47.386Z,98353.91
2022-08-25T15:55:14.614Z,98362.88
2022-08-25T15:57:42.244Z,98360.75
2022-08-25T16:00:13.685Z,98358.38
2022-08-25T16:02:43.530Z,98358.66
2022-08-25T16:05:12.271Z,98366.13
2022-08-25T16:07:40.020Z,98354.91
2022-08-25T16:10:06.886Z,98351.41
2022-08-25T16:12:33.408Z,98351.41
2022-08-25T16:14:59.967Z,98350.03
2022-08-25T16:17:26.676Z,98344.81
2022-08-25T16:19:53.204Z,98346.63
2022-08-25T16:22:19.820Z,98346.84
2022-08-25T16:24:46.804Z,98339.88
2022-08-25T16:27:14.164Z,98336.63
2022-08-25T16:29:45.057Z,98336.25
2022-08-25T16:32:13.388Z,98331.84
2022-08-25T16:34:40.613Z,98333.44
2022-08-25T16:37:07.097Z,98327.00
2022-08-25T16:39:33.980Z,98324.75
2022-08-25T16:42:00.465Z,98326.63
2022-08-25T16:44:27.773Z,98329.84
2022-08-25T16:46:55.190Z,98320.53
2022-08-25T16:49:24.348Z,98324.59
2022-08-25T16:51:57.296Z,98328.00
2022-08-25T16:54:42.987Z,98326.31
2022-08-25T16:57:09.630Z,98330.31
2022-08-25T16:59:36.117Z,98332.44
2022-08-25T17:02:02.725Z,98332.41
2022-08-25T17:04:32.636Z,98330.25
2022-08-25T17:06:59.502Z,98333.75
2022-08-25T17:09:26.245Z,98333.09
2022-08-25T17:11:57.688Z,98333.72
2022-08-25T17:14:24.337Z,98330.53
2022-08-25T17:16:55.551Z,98327.22
2022-08-25T17:19:23.836Z,98334.50
2022-08-25T17:21:50.588Z,98335.03
2022-08-25T17:24:17.693Z,98335.91
2022-08-25T17:26:46.320Z,98336.41
2022-08-25T17:29:12.841Z,98336.63
2022-08-25T17:31:39.971Z,98344.31
2022-08-25T17:34:08.613Z,98338.00
2022-08-25T17:36:35.537Z,98338.06
2022-08-25T17:39:02.715Z,98339.16
2022-08-25T17:41:30.089Z,98333.28
2022-08-25T17:43:56.939Z,98338.34
2022-08-25T17:46:23.992Z,98339.38
2022-08-25T17:48:51.060Z,98338.50
2022-08-25T17:51:17.599Z,98340.47
2022-08-25T17:53:44.121Z,98342.13
2022-08-25T17:56:16.038Z,98341.59
2022-08-25T17:58:42.562Z,98342.13
2022-08-25T18:01:16.255Z,98342.41
2022-08-25T18:03:43.490Z,98348.34
2022-08-25T18:06:12.081Z,98343.28
2022-08-25T18:08:42.476Z,98342.75
2022-08-25T18:11:09.029Z,98345.16
2022-08-25T18:13:36.309Z,98347.03
2022-08-25T18:16:02.959Z,98349.44
2022-08-25T18:18:31.030Z,98351.34
2022-08-25T18:20:57.542Z,98352.41
2022-08-25T18:23:25.655Z,98344.59
2022-08-25T18:25:52.607Z,98342.47
2022-08-25T18:28:33.756Z,98354.34
2022-08-25T18:31:01.967Z,98355.16
2022-08-25T18:33:29.901Z,98351.97
2022-08-25T18:35:57.375Z,98353.38
2022-08-25T18:38:42.924Z,98353.94
2022-08-25T18:41:09.647Z,98347.00
2022-08-25T18:43:36.546Z,98348.88
2022-08-25T18:46:04.769Z,98351.06
2022-08-25T18:48:31.604Z,98360.69
2022-08-25T18:50:58.195Z,98352.66
2022-08-25T18:53:30.453Z,98348.16
2022-08-25T18:56:04.555Z,98350.03
2022-08-25T18:58:31.037Z,98352.47
2022-08-25T19:00:57.578Z,98354.59
2022-08-25T19:03:24.090Z,98344.16
2022-08-25T19:05:57.079Z,98348.72
2022-08-25T19:08:24.114Z,98347.91
2022-08-25T19:10:51.445Z,98355.69
2022-08-25T19:13:17.991Z,98354.66
2022-08-25T19:15:49.416Z,98354.94
2022-08-25T19:18:17.483Z,98354.13
2022-08-25T19:20:44.695Z,98358.97
2022-08-25T19:23:11.244Z,98352.81
2022-08-25T19:25:41.763Z,98355.75
2022-08-25T19:28:09.689Z,98363.00
2022-08-25T19:30:49.983Z,98355.75
2022-08-25T19:33:42.021Z,98359.28
2022-08-25T19:36:05.023Z,98356.34
2022-08-25T19:38:33.995Z,98359.56
2022-08-25T19:41:02.516Z,98359.06
2022-08-25T19:43:31.526Z,98351.78
2022-08-25T19:45:58.052Z,98358.22
2022-08-25T19:48:24.575Z,98357.69
2022-08-25T19:50:56.134Z,98361.47
2022-08-25T19:53:22.838Z,98361.75
2022-08-25T19:55:53.711Z,98364.44
2022-08-25T19:58:20.479Z,98362.00
2022-08-25T20:00:49.451Z,98358.84
2022-08-25T20:03:20.394Z,98356.72
2022-08-25T20:05:47.804Z,98365.84
2022-08-25T20:08:15.919Z,98356.78
2022-08-25T20:10:42.627Z,98368.88
2022-08-25T20:13:09.182Z,98364.06
2022-08-25T20:15:38.741Z,98366.44
2022-08-25T20:18:05.949Z,98371.31
2022-08-25T20:20:34.599Z,98370.50
2022-08-25T20:23:20.759Z,98372.69
2022-08-25T20:25:50.215Z,98370.06
2022-08-25T20:28:19.006Z,98368.25
2022-08-25T20:30:45.898Z,98374.81
2022-08-25T20:33:13.368Z,98368.03
2022-08-25T20:35:47.494Z,98362.97
2022-08-25T20:38:14.009Z,98372.06
2022-08-25T20:40:41.616Z,98375.22
2022-08-25T20:43:10.400Z,98373.59
2022-08-25T20:45:39.092Z,98369.84
2022-08-25T20:48:06.282Z,98366.16
2022-08-25T20:50:33.802Z,98375.22
2022-08-25T20:53:00.860Z,98369.00
2022-08-25T20:55:28.804Z,98363.03
2022-08-25T20:57:55.286Z,98362.72
2022-08-25T21:00:22.782Z,98370.81
2022-08-25T21:02:51.923Z,98368.44
2022-08-25T21:05:18.807Z,98363.94
2022-08-25T21:07:45.348Z,98365.84
2022-08-25T21:10:14.416Z,98372.28
2022-08-25T21:12:41.258Z,98369.88
2022-08-25T21:15:10.334Z,98368.03
2022-08-25T21:17:36.826Z,98375.28
2022-08-25T21:20:05.290Z,98368.88
2022-08-25T21:22:39.798Z,98368.66
2022-08-25T21:25:07.130Z,98371.38
2022-08-25T21:27:33.613Z,98370.38
2022-08-25T21:30:00.153Z,98368.78
2022-08-25T21:32:26.655Z,98366.31
2022-08-25T21:34:54.017Z,98369.31
2022-08-25T21:37:20.834Z,98369.31
2022-08-25T21:39:47.387Z,98369.53
2022-08-25T21:42:13.930Z,98362.78
2022-08-25T21:44:40.435Z,98365.25
2022-08-25T21:47:07.017Z,98368.44
2022-08-25T21:49:37.301Z,98368.94
2022-08-25T21:52:04.525Z,98371.63
2022-08-25T21:54:31.127Z,98367.91
2022-08-25T21:57:01.900Z,98363.94
2022-08-25T21:59:30.089Z,98368.78
2022-08-25T22:01:57.716Z,98366.69
2022-08-25T22:04:24.383Z,98363.97
2022-08-25T22:06:50.978Z,98357.28
2022-08-25T22:09:17.696Z,98356.88
2022-08-25T22:11:45.552Z,98360.59
2022-08-25T22:14:12.667Z,98361.38
2022-08-25T22:16:39.396Z,98356.56
2022-08-25T22:19:06.606Z,98361.13
2022-08-25T22:21:33.429Z,98356.31
2022-08-25T22:24:00.077Z,98348.78
2022-08-25T22:26:28.960Z,98352.56
2022-08-25T22:28:56.602Z,98351.50
2022-08-25T22:31:23.449Z,98349.38
2022-08-25T22:33:50.461Z,98349.38
2022-08-25T22:36:21.997Z,98342.19
2022-08-25T22:38:48.626Z,98342.25
2022-08-25T22:41:19.119Z,98350.75
2022-08-25T22:43:48.555Z,98352.59
2022-08-25T22:46:15.113Z,98352.09
2022-08-25T22:48:43.958Z,98354.84
2022-08-25T22:51:20.559Z,98343.84
2022-08-25T22:53:47.537Z,98348.91
2022-08-25T22:56:17.226Z,98350.25
2022-08-25T22:58:43.842Z,98346.41
2022-08-25T23:01:18.900Z,98346.28
2022-08-25T23:03:45.444Z,98349.16
2022-08-25T23:06:17.047Z,98339.25
2022-08-25T23:08:45.482Z,98349.69
2022-08-25T23:11:12.399Z,98350.50
2022-08-25T23:13:39.277Z,98344.59
2022-08-25T23:16:09.155Z,98342.97
2022-08-25T23:18:43.117Z,98338.19
2022-08-25T23:21:28.982Z,98343.53
2022-08-25T23:24:01.835Z,98336.31
2022-08-25T23:26:28.718Z,98336.31
2022-08-25T23:28:55.215Z,98332.53
2022-08-25T23:31:21.846Z,98332.53
2022-08-25T23:33:50.802Z,98328.78
2022-08-25T23:36:17.365Z,98327.97
2022-08-25T23:38:45.003Z,98333.34
2022-08-25T23:41:20.056Z,98332.25
2022-08-25T23:43:47.870Z,98330.38
2022-08-25T23:46:16.560Z,98333.03
2022-08-25T23:48:43.081Z,98329.03
2022-08-25T23:51:09.591Z,98328.22
2022-08-25T23:53:36.299Z,98329.31
2022-08-25T23:56:02.991Z,98313.25
2022-08-25T23:58:32.239Z,98321.00
